createdAt,value
2016-10-10T00:00:26.085Z,972.22
2016-10-10T00:01:26.047Z,972.2
2016-10-10T00:02:26.005Z,972.17
2016-10-10T00:03:25.969Z,972.19
2016-10-10T00:04:25.927Z,972.21
2016-10-10T00:05:25.888Z,972.19
2016-10-10T00:06:25.847Z,972.21
2016-10-10T00:07:25.809Z,972.2
2016-10-10T00:08:25.769Z,972.18
2016-10-10T00:09:25.728Z,972.19
2016-10-10T00:10:25.689Z,972.17
2016-10-10T00:11:25.651Z,972.18
2016-10-10T00:12:25.609Z,972.14
2016-10-10T00:13:25.571Z,972.13
2016-10-10T00:14:25.534Z,972.13
2016-10-10T00:15:25.490Z,972.09
2016-10-10T00:16:25.452Z,972.09
2016-10-10T00:17:25.411Z,972.08
2016-10-10T00:18:25.372Z,972.06
2016-10-10T00:19:25.331Z,972.07
2016-10-10T00:20:25.292Z,972.05
2016-10-10T00:21:25.253Z,972.06
2016-10-10T00:22:25.211Z,972.09
2016-10-10T00:23:25.173Z,972.13
2016-10-10T00:24:25.133Z,972.13
2016-10-10T00:25:25.092Z,972.14
2016-10-10T00:26:25.053Z,972.15
2016-10-10T00:27:25.013Z,972.14
2016-10-10T00:28:24.973Z,972.19
2016-10-10T00:29:24.933Z,972.16
2016-10-10T00:30:24.893Z,972.18
2016-10-10T00:31:24.853Z,972.18
2016-10-10T00:32:24.813Z,972.22
2016-10-10T00:33:24.773Z,972.17
2016-10-10T00:34:24.733Z,972.17
2016-10-10T00:35:24.693Z,972.16
2016-10-10T00:36:24.653Z,972.15
2016-10-10T00:37:24.614Z,972.15
2016-10-10T00:38:24.572Z,972.14
2016-10-10T00:39:24.533Z,972.16
2016-10-10T00:40:24.497Z,972.15
2016-10-10T00:41:24.453Z,972.12
2016-10-10T00:42:24.415Z,972.15
2016-10-10T00:43:24.373Z,972.18
2016-10-10T00:44:24.333Z,972.12
2016-10-10T00:45:24.293Z,972.12
2016-10-10T00:46:24.253Z,972.15
2016-10-10T00:47:24.212Z,972.12
2016-10-10T00:48:24.173Z,972.09
2016-10-10T00:49:24.132Z,972.03
2016-10-10T00:50:24.092Z,972.05
2016-10-10T00:51:24.052Z,972.01
2016-10-10T00:52:24.012Z,972.03
2016-10-10T00:53:23.971Z,971.98
2016-10-10T00:54:23.934Z,971.95
2016-10-10T00:55:23.892Z,971.95
2016-10-10T00:56:23.852Z,971.92
2016-10-10T00:57:23.811Z,971.95
2016-10-10T00:58:23.771Z,971.92
2016-10-10T00:59:23.731Z,971.9
2016-10-10T01:00:23.689Z,971.92
2016-10-10T01:01:23.654Z,971.94
2016-10-10T01:02:23.613Z,971.93
2016-10-10T01:03:23.569Z,971.92
2016-10-10T01:04:23.530Z,971.93
2016-10-10T01:05:23.490Z,971.95
2016-10-10T01:06:23.450Z,971.92
2016-10-10T01:07:23.408Z,971.96
2016-10-10T01:08:23.368Z,971.92
2016-10-10T01:09:23.328Z,971.88
2016-10-10T01:10:23.289Z,971.94
2016-10-10T01:11:23.247Z,971.93
2016-10-10T01:12:23.207Z,971.92
2016-10-10T01:13:23.167Z,971.87
2016-10-10T01:14:23.127Z,971.85
2016-10-10T01:15:23.087Z,971.86
2016-10-10T01:16:23.047Z,971.85
2016-10-10T01:17:23.005Z,971.83
2016-10-10T01:18:22.965Z,971.88
2016-10-10T01:19:22.925Z,971.83
2016-10-10T01:20:22.889Z,971.83
2016-10-10T01:21:22.846Z,971.84
2016-10-10T01:22:22.803Z,971.87
2016-10-10T01:23:22.764Z,971.82
2016-10-10T01:24:22.725Z,971.86
2016-10-10T01:25:22.713Z,971.85
2016-10-10T01:26:22.642Z,971.88
2016-10-10T01:27:22.603Z,971.83
2016-10-10T01:28:22.562Z,971.83
2016-10-10T01:29:22.520Z,971.81
2016-10-10T01:30:22.480Z,971.8
2016-10-10T01:31:22.440Z,971.79
2016-10-10T01:32:22.399Z,971.79
2016-10-10T01:33:22.365Z,971.79
2016-10-10T01:34:22.319Z,971.8
2016-10-10T01:35:22.277Z,971.81
2016-10-10T01:36:22.236Z,971.82
2016-10-10T01:37:22.196Z,971.83
2016-10-10T01:38:22.156Z,971.86
2016-10-10T01:39:22.115Z,971.86
2016-10-10T01:40:22.074Z,971.85
2016-10-10T01:41:22.033Z,971.81
2016-10-10T01:42:21.993Z,971.85
2016-10-10T01:43:21.955Z,971.85
2016-10-10T01:44:21.912Z,971.79
2016-10-10T01:45:21.874Z,971.83
2016-10-10T01:46:21.836Z,971.8
2016-10-10T01:47:21.791Z,971.8
2016-10-10T01:48:21.751Z,971.8
2016-10-10T01:49:21.709Z,971.8
2016-10-10T01:50:21.669Z,971.79
2016-10-10T01:51:21.630Z,971.79
2016-10-10T01:52:21.588Z,971.8
2016-10-10T01:53:21.549Z,971.81
2016-10-10T01:54:21.508Z,971.82
2016-10-10T01:55:21.466Z,971.84
2016-10-10T01:56:21.427Z,971.85
2016-10-10T01:57:21.386Z,971.88
2016-10-10T01:58:21.345Z,971.86
2016-10-10T01:59:21.303Z,971.88
2016-10-10T02:00:21.264Z,971.82
2016-10-10T02:01:21.222Z,971.85
2016-10-10T02:02:21.184Z,971.83
2016-10-10T02:03:21.141Z,971.78
2016-10-10T02:04:21.101Z,971.77
2016-10-10T02:05:21.060Z,971.79
2016-10-10T02:06:21.022Z,971.76
2016-10-10T02:07:20.979Z,971.76
2016-10-10T02:08:20.941Z,971.73
2016-10-10T02:09:20.898Z,971.74
2016-10-10T02:10:20.859Z,971.77
2016-10-10T02:11:20.816Z,971.74
2016-10-10T02:12:20.777Z,971.74
2016-10-10T02:13:20.734Z,971.72
2016-10-10T02:14:20.695Z,971.76
2016-10-10T02:15:20.656Z,971.73
2016-10-10T02:16:20.615Z,971.69
2016-10-10T02:17:20.574Z,971.69
2016-10-10T02:18:20.532Z,971.69
2016-10-10T02:19:20.492Z,971.67
2016-10-10T02:20:20.452Z,971.63
2016-10-10T02:21:20.411Z,971.64
2016-10-10T02:22:20.371Z,971.61
2016-10-10T02:23:20.330Z,971.61
2016-10-10T02:24:20.288Z,971.63
2016-10-10T02:25:20.248Z,971.66
2016-10-10T02:26:20.208Z,971.61
2016-10-10T02:27:20.166Z,971.64
2016-10-10T02:28:20.125Z,971.65
2016-10-10T02:29:20.085Z,971.64
2016-10-10T02:30:20.044Z,971.62
2016-10-10T02:31:20.003Z,971.66
2016-10-10T02:32:19.963Z,971.61
2016-10-10T02:33:19.921Z,971.63
2016-10-10T02:34:19.883Z,971.64
2016-10-10T02:35:19.842Z,971.63
2016-10-10T02:36:19.800Z,971.66
2016-10-10T02:37:19.758Z,971.67
2016-10-10T02:38:19.716Z,971.67
2016-10-10T02:39:19.677Z,971.7
2016-10-10T02:40:19.637Z,971.7
2016-10-10T02:41:19.595Z,971.68
2016-10-10T02:42:19.554Z,971.68
2016-10-10T02:43:19.514Z,971.64
2016-10-10T02:44:19.472Z,971.64
2016-10-10T02:45:19.432Z,971.67
2016-10-10T02:46:19.393Z,971.63
2016-10-10T02:47:19.351Z,971.64
2016-10-10T02:48:19.309Z,971.63
2016-10-10T02:49:19.268Z,971.65
2016-10-10T02:50:19.228Z,971.65
2016-10-10T02:51:19.188Z,971.65
2016-10-10T02:52:19.147Z,971.63
2016-10-10T02:53:19.106Z,971.63
2016-10-10T02:54:19.064Z,971.71
2016-10-10T02:55:19.024Z,971.73
2016-10-10T02:56:18.981Z,971.76
2016-10-10T02:57:18.941Z,971.71
2016-10-10T02:58:18.901Z,971.72
2016-10-10T02:59:18.859Z,971.71
2016-10-10T03:00:18.818Z,971.66
2016-10-10T03:01:18.776Z,971.7
2016-10-10T03:02:18.736Z,971.69
2016-10-10T03:03:18.696Z,971.68
2016-10-10T03:04:18.656Z,971.63
2016-10-10T03:05:18.613Z,971.63
2016-10-10T03:06:18.573Z,971.61
2016-10-10T03:07:18.531Z,971.61
2016-10-10T03:08:18.490Z,971.61
2016-10-10T03:09:18.450Z,971.59
2016-10-10T03:10:18.408Z,971.56
2016-10-10T03:11:18.367Z,971.46
2016-10-10T03:12:18.327Z,971.49
2016-10-10T03:13:18.285Z,971.53
2016-10-10T03:14:18.246Z,971.53
2016-10-10T03:15:18.203Z,971.51
2016-10-10T03:16:18.162Z,971.46
2016-10-10T03:17:18.122Z,971.47
2016-10-10T03:18:18.081Z,971.48
2016-10-10T03:19:18.038Z,971.48
2016-10-10T03:20:18.000Z,971.44
2016-10-10T03:21:17.958Z,971.42
2016-10-10T03:22:17.916Z,971.45
2016-10-10T03:23:17.876Z,971.43
2016-10-10T03:24:17.834Z,971.46
2016-10-10T03:25:17.794Z,971.44
2016-10-10T03:26:17.752Z,971.49
2016-10-10T03:27:17.711Z,971.46
2016-10-10T03:28:17.671Z,971.48
2016-10-10T03:29:17.629Z,971.48
2016-10-10T03:30:17.587Z,971.51
2016-10-10T03:31:17.547Z,971.52
2016-10-10T03:32:17.507Z,971.5
2016-10-10T03:33:17.466Z,971.52
2016-10-10T03:34:17.423Z,971.51
2016-10-10T03:35:17.383Z,971.51
2016-10-10T03:36:17.343Z,971.54
2016-10-10T03:37:17.301Z,971.51
2016-10-10T03:38:17.260Z,971.54
2016-10-10T03:39:17.220Z,971.56
2016-10-10T03:40:17.178Z,971.58
2016-10-10T03:41:17.137Z,971.58
2016-10-10T03:42:17.097Z,971.59
2016-10-10T03:43:17.055Z,971.59
2016-10-10T03:44:17.016Z,971.56
2016-10-10T03:45:16.975Z,971.55
2016-10-10T03:46:16.933Z,971.54
2016-10-10T03:47:16.892Z,971.54
2016-10-10T03:48:16.850Z,971.48
2016-10-10T03:49:16.810Z,971.5
2016-10-10T03:50:16.769Z,971.51
2016-10-10T03:51:16.728Z,971.51
2016-10-10T03:52:16.688Z,971.46
2016-10-10T03:53:16.646Z,971.46
2016-10-10T03:54:16.607Z,971.49
2016-10-10T03:55:16.567Z,971.49
2016-10-10T03:56:16.525Z,971.46
2016-10-10T03:57:16.486Z,971.45
2016-10-10T03:58:16.444Z,971.41
2016-10-10T03:59:16.402Z,971.44
2016-10-10T04:00:16.362Z,971.42
2016-10-10T04:01:16.322Z,971.44
2016-10-10T04:02:16.278Z,971.43
2016-10-10T04:03:16.237Z,971.43
2016-10-10T04:04:16.198Z,971.44
2016-10-10T04:05:16.158Z,971.4
2016-10-10T04:06:16.117Z,971.45
2016-10-10T04:07:16.075Z,971.42
2016-10-10T04:08:16.040Z,971.44
2016-10-10T04:09:15.993Z,971.43
2016-10-10T04:10:15.953Z,971.4
2016-10-10T04:11:15.911Z,971.43
2016-10-10T04:12:15.871Z,971.43
2016-10-10T04:13:15.830Z,971.4
2016-10-10T04:14:15.789Z,971.47
2016-10-10T04:15:15.747Z,971.43
2016-10-10T04:16:15.706Z,971.48
2016-10-10T04:17:15.667Z,971.49
2016-10-10T04:18:15.625Z,971.52
2016-10-10T04:19:15.585Z,971.46
2016-10-10T04:20:15.543Z,971.47
2016-10-10T04:21:15.502Z,971.51
2016-10-10T04:22:15.462Z,971.49
2016-10-10T04:23:15.422Z,971.45
2016-10-10T04:24:15.379Z,971.44
2016-10-10T04:25:15.347Z,971.44
2016-10-10T04:26:15.299Z,971.47
2016-10-10T04:27:15.259Z,971.46
2016-10-10T04:28:15.216Z,971.54
2016-10-10T04:29:15.176Z,971.5
2016-10-10T04:30:15.136Z,971.52
2016-10-10T04:31:15.094Z,971.51
2016-10-10T04:32:15.053Z,971.51
2016-10-10T04:33:15.019Z,971.52
2016-10-10T04:34:14.971Z,971.49
2016-10-10T04:35:14.931Z,971.51
2016-10-10T04:36:14.890Z,971.52
2016-10-10T04:37:14.849Z,971.49
2016-10-10T04:38:14.808Z,971.48
2016-10-10T04:39:14.769Z,971.47
2016-10-10T04:40:14.726Z,971.46
2016-10-10T04:41:14.686Z,971.47
2016-10-10T04:42:14.645Z,971.47
2016-10-10T04:43:14.603Z,971.52
2016-10-10T04:44:14.563Z,971.47
2016-10-10T04:45:14.523Z,971.42
2016-10-10T04:46:14.481Z,971.44
2016-10-10T04:47:14.440Z,971.44
2016-10-10T04:48:14.399Z,971.43
2016-10-10T04:49:14.361Z,971.44
2016-10-10T04:50:14.318Z,971.46
2016-10-10T04:51:14.276Z,971.41
2016-10-10T04:52:14.236Z,971.46
2016-10-10T04:53:14.195Z,971.43
2016-10-10T04:54:14.154Z,971.41
2016-10-10T04:55:14.115Z,971.37
2016-10-10T04:56:14.073Z,971.39
2016-10-10T04:57:14.031Z,971.41
2016-10-10T04:58:13.990Z,971.39
2016-10-10T04:59:13.951Z,971.39
2016-10-10T05:00:13.909Z,971.37
2016-10-10T05:01:13.867Z,971.36
2016-10-10T05:02:13.829Z,971.37
2016-10-10T05:03:13.787Z,971.36
2016-10-10T05:04:13.745Z,971.31
2016-10-10T05:05:13.707Z,971.33
2016-10-10T05:06:13.667Z,971.34
2016-10-10T05:07:13.623Z,971.33
2016-10-10T05:08:13.581Z,971.34
2016-10-10T05:09:13.542Z,971.34
2016-10-10T05:10:13.499Z,971.36
2016-10-10T05:11:13.459Z,971.34
2016-10-10T05:12:13.418Z,971.37
2016-10-10T05:13:13.375Z,971.37
2016-10-10T05:14:13.336Z,971.37
2016-10-10T05:15:13.296Z,971.43
2016-10-10T05:16:13.253Z,971.41
2016-10-10T05:17:13.213Z,971.4
2016-10-10T05:18:13.172Z,971.4
2016-10-10T05:19:13.130Z,971.37
2016-10-10T05:20:13.089Z,971.41
2016-10-10T05:21:13.050Z,971.37
2016-10-10T05:22:13.010Z,971.41
2016-10-10T05:23:12.967Z,971.39
2016-10-10T05:24:12.926Z,971.43
2016-10-10T05:25:12.886Z,971.41
2016-10-10T05:26:12.843Z,971.43
2016-10-10T05:27:12.803Z,971.42
2016-10-10T05:28:12.763Z,971.42
2016-10-10T05:29:12.722Z,971.41
2016-10-10T05:30:12.681Z,971.42
2016-10-10T05:31:12.641Z,971.42
2016-10-10T05:32:12.598Z,971.43
2016-10-10T05:33:12.560Z,971.47
2016-10-10T05:34:12.517Z,971.42
2016-10-10T05:35:12.475Z,971.44
2016-10-10T05:36:12.435Z,971.41
2016-10-10T05:37:12.401Z,971.43
2016-10-10T05:38:12.352Z,971.39
2016-10-10T05:39:12.312Z,971.44
2016-10-10T05:40:12.271Z,971.41
2016-10-10T05:41:12.229Z,971.46
2016-10-10T05:42:12.188Z,971.46
2016-10-10T05:43:12.147Z,971.45
2016-10-10T05:44:12.109Z,971.46
2016-10-10T05:45:12.066Z,971.47
2016-10-10T05:46:12.024Z,971.43
2016-10-10T05:47:11.984Z,971.45
2016-10-10T05:48:11.942Z,971.46
2016-10-10T05:49:11.901Z,971.47
2016-10-10T05:50:11.861Z,971.46
2016-10-10T05:51:11.820Z,971.52
2016-10-10T05:52:11.778Z,971.48
2016-10-10T05:53:11.738Z,971.45
2016-10-10T05:54:11.697Z,971.48
2016-10-10T05:55:11.656Z,971.48
2016-10-10T05:56:11.616Z,971.5
2016-10-10T05:57:11.574Z,971.46
2016-10-10T05:58:11.534Z,971.48
2016-10-10T05:59:11.491Z,971.5
2016-10-10T06:00:11.449Z,971.47
2016-10-10T06:01:11.410Z,971.48
2016-10-10T06:02:11.370Z,971.47
2016-10-10T06:03:11.327Z,971.47
2016-10-10T06:04:11.287Z,971.45
2016-10-10T06:05:11.245Z,971.46
2016-10-10T06:06:11.206Z,971.47
2016-10-10T06:07:11.163Z,971.44
2016-10-10T06:08:11.123Z,971.42
2016-10-10T06:09:11.083Z,971.41
2016-10-10T06:10:11.040Z,971.43
2016-10-10T06:11:11.001Z,971.4
2016-10-10T06:12:10.960Z,971.41
2016-10-10T06:13:10.921Z,971.44
2016-10-10T06:14:10.878Z,971.44
2016-10-10T06:15:10.837Z,971.43
2016-10-10T06:16:10.798Z,971.43
2016-10-10T06:17:10.759Z,971.41
2016-10-10T06:18:10.717Z,971.47
2016-10-10T06:19:10.678Z,971.44
2016-10-10T06:20:10.636Z,971.44
2016-10-10T06:21:10.595Z,971.43
2016-10-10T06:22:10.556Z,971.48
2016-10-10T06:23:10.517Z,971.43
2016-10-10T06:24:10.478Z,971.45
2016-10-10T06:25:10.437Z,971.46
2016-10-10T06:26:10.398Z,971.53
2016-10-10T06:27:10.358Z,971.54
2016-10-10T06:28:10.318Z,971.51
2016-10-10T06:29:10.278Z,971.52
2016-10-10T06:30:10.239Z,971.5
2016-10-10T06:31:10.200Z,971.5
2016-10-10T06:32:10.163Z,971.47
2016-10-10T06:33:10.123Z,971.49
2016-10-10T06:34:10.085Z,971.46
2016-10-10T06:35:10.045Z,971.5
2016-10-10T06:36:10.006Z,971.51
2016-10-10T06:37:09.971Z,971.48
2016-10-10T06:38:09.930Z,971.48
2016-10-10T06:39:09.894Z,971.45
2016-10-10T06:40:09.853Z,971.43
2016-10-10T06:41:09.817Z,971.45
2016-10-10T06:42:09.778Z,971.43
2016-10-10T06:43:09.738Z,971.46
2016-10-10T06:44:09.699Z,971.41
2016-10-10T06:45:09.661Z,971.44
2016-10-10T06:46:09.624Z,971.43
2016-10-10T06:47:09.584Z,971.46
2016-10-10T06:48:09.545Z,971.47
2016-10-10T06:49:09.507Z,971.46
2016-10-10T06:50:09.468Z,971.49
2016-10-10T06:51:09.429Z,971.49
2016-10-10T06:52:09.391Z,971.5
2016-10-10T06:53:09.352Z,971.48
2016-10-10T06:54:09.313Z,971.54
2016-10-10T06:55:09.277Z,971.51
2016-10-10T06:56:09.237Z,971.49
2016-10-10T06:57:09.198Z,971.57
2016-10-10T06:58:09.158Z,971.52
2016-10-10T06:59:09.120Z,971.52
2016-10-10T07:00:09.082Z,971.51
2016-10-10T07:01:09.043Z,971.5
2016-10-10T07:02:09.003Z,971.47
2016-10-10T07:03:08.966Z,971.5
2016-10-10T07:04:08.928Z,971.49
2016-10-10T07:05:08.888Z,971.49
2016-10-10T07:06:08.851Z,971.53
2016-10-10T07:07:08.813Z,971.53
2016-10-10T07:08:08.774Z,971.54
2016-10-10T07:09:08.735Z,971.52
2016-10-10T07:10:08.696Z,971.57
2016-10-10T07:11:08.658Z,971.55
2016-10-10T07:12:08.621Z,971.57
2016-10-10T07:13:08.581Z,971.52
2016-10-10T07:14:08.542Z,971.52
2016-10-10T07:15:08.504Z,971.56
2016-10-10T07:16:08.464Z,971.57
2016-10-10T07:17:08.427Z,971.57
2016-10-10T07:18:08.387Z,971.6
2016-10-10T07:19:08.350Z,971.57
2016-10-10T07:20:08.311Z,971.58
2016-10-10T07:21:08.272Z,971.58
2016-10-10T07:22:08.234Z,971.57
2016-10-10T07:23:08.195Z,971.6
2016-10-10T07:24:08.157Z,971.61
2016-10-10T07:25:08.118Z,971.61
2016-10-10T07:26:08.080Z,971.63
2016-10-10T07:27:08.043Z,971.65
2016-10-10T07:28:08.001Z,971.63
2016-10-10T07:29:07.963Z,971.62
2016-10-10T07:30:07.925Z,971.63
2016-10-10T07:31:07.885Z,971.64
2016-10-10T07:32:07.846Z,971.62
2016-10-10T07:33:07.809Z,971.66
2016-10-10T07:34:07.770Z,971.62
2016-10-10T07:35:07.732Z,971.65
2016-10-10T07:36:07.693Z,971.63
2016-10-10T07:37:07.655Z,971.65
2016-10-10T07:38:07.614Z,971.68
2016-10-10T07:39:07.576Z,971.69
2016-10-10T07:40:07.539Z,971.69
2016-10-10T07:41:07.499Z,971.72
2016-10-10T07:42:07.461Z,971.74
2016-10-10T07:43:07.421Z,971.79
2016-10-10T07:44:07.383Z,971.79
2016-10-10T07:45:07.346Z,971.78
2016-10-10T07:46:07.306Z,971.73
2016-10-10T07:47:07.268Z,971.75
2016-10-10T07:48:07.229Z,971.76
2016-10-10T07:49:07.192Z,971.82
2016-10-10T07:50:07.151Z,971.82
2016-10-10T07:51:07.113Z,971.77
2016-10-10T07:52:07.077Z,971.79
2016-10-10T07:53:07.036Z,971.77
2016-10-10T07:54:07.000Z,971.8
2016-10-10T07:55:06.962Z,971.79
2016-10-10T07:56:06.923Z,971.79
2016-10-10T07:57:06.885Z,971.78
2016-10-10T07:58:06.848Z,971.74
2016-10-10T07:59:06.808Z,971.72
2016-10-10T08:00:06.770Z,971.72
2016-10-10T08:01:06.733Z,971.77
2016-10-10T08:02:06.694Z,971.77
2016-10-10T08:03:06.657Z,971.75
2016-10-10T08:04:06.618Z,971.76
2016-10-10T08:05:06.580Z,971.79
2016-10-10T08:06:06.549Z,971.79
2016-10-10T08:07:06.503Z,971.8
2016-10-10T08:08:06.467Z,971.73
2016-10-10T08:09:06.429Z,971.73
2016-10-10T08:10:06.392Z,971.71
2016-10-10T08:11:06.356Z,971.75
2016-10-10T08:12:06.316Z,971.75
2016-10-10T08:13:06.286Z,971.75
2016-10-10T08:14:06.242Z,971.71
2016-10-10T08:15:06.203Z,971.74
2016-10-10T08:16:06.166Z,971.75
2016-10-10T08:17:06.129Z,971.72
2016-10-10T08:18:06.091Z,971.72
2016-10-10T08:19:06.054Z,971.68
2016-10-10T08:20:06.016Z,971.68
2016-10-10T08:21:05.981Z,971.72
2016-10-10T08:22:05.942Z,971.73
2016-10-10T08:23:05.907Z,971.68
2016-10-10T08:24:05.867Z,971.68
2016-10-10T08:25:05.831Z,971.72
2016-10-10T08:26:05.793Z,971.71
2016-10-10T08:27:05.758Z,971.7
2016-10-10T08:28:05.720Z,971.69
2016-10-10T08:29:05.681Z,971.75
2016-10-10T08:30:05.644Z,971.7
2016-10-10T08:31:05.609Z,971.74
2016-10-10T08:32:05.571Z,971.71
2016-10-10T08:33:05.533Z,971.77
2016-10-10T08:34:05.497Z,971.73
2016-10-10T08:35:05.459Z,971.69
2016-10-10T08:36:05.422Z,971.72
2016-10-10T08:37:05.386Z,971.68
2016-10-10T08:38:05.350Z,971.69
2016-10-10T08:39:05.312Z,971.68
2016-10-10T08:40:05.275Z,971.67
2016-10-10T08:41:05.246Z,971.71
2016-10-10T08:42:05.201Z,971.68
2016-10-10T08:43:05.165Z,971.67
2016-10-10T08:44:05.127Z,971.64
2016-10-10T08:45:05.091Z,971.64
2016-10-10T08:46:05.055Z,971.64
2016-10-10T08:47:05.017Z,971.64
2016-10-10T08:48:04.981Z,971.6
2016-10-10T08:49:04.946Z,971.65
2016-10-10T08:50:04.909Z,971.66
2016-10-10T08:51:04.871Z,971.71
2016-10-10T08:52:04.835Z,971.67
2016-10-10T08:53:04.798Z,971.68
2016-10-10T08:54:04.763Z,971.68
2016-10-10T08:55:04.726Z,971.71
2016-10-10T08:56:04.689Z,971.69
2016-10-10T08:57:04.652Z,971.7
2016-10-10T08:58:04.616Z,971.7
2016-10-10T08:59:04.581Z,971.68
2016-10-10T09:00:04.547Z,971.7
2016-10-10T09:01:04.509Z,971.73
2016-10-10T09:02:04.473Z,971.74
2016-10-10T09:03:04.439Z,971.77
2016-10-10T09:04:04.401Z,971.84
2016-10-10T09:05:04.365Z,971.83
2016-10-10T09:06:04.329Z,971.7
2016-10-10T09:07:04.294Z,971.68
2016-10-10T09:08:04.263Z,971.65
2016-10-10T09:09:04.223Z,971.64
2016-10-10T09:10:04.187Z,971.64
2016-10-10T09:11:04.154Z,971.56
2016-10-10T09:12:04.119Z,971.55
2016-10-10T09:13:04.082Z,971.55
2016-10-10T09:14:04.049Z,971.56
2016-10-10T09:15:04.013Z,971.58
2016-10-10T09:16:03.980Z,971.58
2016-10-10T09:17:03.943Z,971.58
2016-10-10T09:18:03.908Z,971.56
2016-10-10T09:19:03.874Z,971.53
2016-10-10T09:20:03.839Z,971.53
2016-10-10T09:21:03.802Z,971.56
2016-10-10T09:22:03.769Z,971.55
2016-10-10T09:23:03.733Z,971.57
2016-10-10T09:24:03.698Z,971.52
2016-10-10T09:25:03.663Z,971.54
2016-10-10T09:26:03.629Z,971.55
2016-10-10T09:27:03.593Z,971.54
2016-10-10T09:28:03.557Z,971.51
2016-10-10T09:29:03.522Z,971.49
2016-10-10T09:30:03.488Z,971.5
2016-10-10T09:31:03.454Z,971.5
2016-10-10T09:32:03.419Z,971.51
2016-10-10T09:33:03.383Z,971.54
2016-10-10T09:34:03.352Z,971.51
2016-10-10T09:35:03.314Z,971.45
2016-10-10T09:36:03.281Z,971.46
2016-10-10T09:37:03.246Z,971.45
2016-10-10T09:38:03.209Z,971.44
2016-10-10T09:39:03.176Z,971.42
2016-10-10T09:40:03.140Z,971.44
2016-10-10T09:41:03.105Z,971.42
2016-10-10T09:42:03.072Z,971.44
2016-10-10T09:43:03.035Z,971.41
2016-10-10T09:44:03.002Z,971.4
2016-10-10T09:45:02.966Z,971.41
2016-10-10T09:46:02.939Z,971.4
2016-10-10T09:47:02.896Z,971.44
2016-10-10T09:48:02.863Z,971.43
2016-10-10T09:49:02.827Z,971.49
2016-10-10T09:50:02.792Z,971.39
2016-10-10T09:51:02.758Z,971.35
2016-10-10T09:52:02.722Z,971.33
2016-10-10T09:53:02.688Z,971.31
2016-10-10T09:54:02.652Z,971.32
2016-10-10T09:55:02.618Z,971.34
2016-10-10T09:56:02.584Z,971.31
2016-10-10T09:57:02.548Z,971.25
2016-10-10T09:58:02.514Z,971.39
2016-10-10T09:59:02.480Z,971.33
2016-10-10T10:00:02.446Z,971.35
2016-10-10T10:01:02.410Z,971.32
2016-10-10T10:02:02.377Z,971.44
2016-10-10T10:03:02.343Z,972.04
2016-10-10T10:04:02.305Z,971.39
2016-10-10T10:05:02.271Z,971.51
2016-10-10T10:06:02.238Z,971.38
2016-10-10T10:07:02.202Z,971.38
2016-10-10T10:08:02.166Z,971.29
2016-10-10T10:09:02.133Z,971.3
2016-10-10T10:10:02.103Z,971.31
2016-10-10T10:11:02.065Z,971.25
2016-10-10T10:12:02.032Z,971.3
2016-10-10T10:13:01.997Z,971.3
2016-10-10T10:14:01.962Z,971.22
2016-10-10T10:15:01.928Z,971.28
2016-10-10T10:16:01.892Z,971.28
2016-10-10T10:17:01.861Z,971.28
2016-10-10T10:18:01.824Z,971.25
2016-10-10T10:19:01.788Z,971.28
2016-10-10T10:20:01.752Z,971.19
2016-10-10T10:21:01.721Z,971.18
2016-10-10T10:22:01.683Z,971.18
2016-10-10T10:23:01.649Z,971.14
2016-10-10T10:24:01.614Z,971.11
2016-10-10T10:25:01.579Z,971.11
2016-10-10T10:26:01.543Z,971.07
2016-10-10T10:27:01.508Z,971.11
2016-10-10T10:28:01.472Z,971.15
2016-10-10T10:29:01.438Z,971.15
2016-10-10T10:30:01.403Z,971.07
2016-10-10T10:31:01.368Z,971.07
2016-10-10T10:32:01.332Z,971.07
2016-10-10T10:33:01.295Z,971.08
2016-10-10T10:34:01.260Z,971.08
2016-10-10T10:35:01.225Z,971.05
2016-10-10T10:36:01.191Z,971.02
2016-10-10T10:37:01.154Z,971.02
2016-10-10T10:38:01.120Z,971.05
2016-10-10T10:39:01.082Z,971.04
2016-10-10T10:40:01.047Z,971.02
2016-10-10T10:41:01.012Z,971.02
2016-10-10T10:42:00.977Z,970.94
2016-10-10T10:43:00.941Z,970.94
2016-10-10T10:44:00.905Z,970.93
2016-10-10T10:45:00.869Z,970.94
2016-10-10T10:46:00.835Z,970.94
2016-10-10T10:47:00.802Z,970.85
2016-10-10T10:48:00.764Z,970.85
2016-10-10T10:49:00.731Z,970.84
2016-10-10T10:50:00.694Z,970.86
2016-10-10T10:51:00.659Z,970.82
2016-10-10T10:52:00.622Z,970.78
2016-10-10T10:53:00.588Z,970.78
2016-10-10T10:54:00.554Z,970.76
2016-10-10T10:55:00.517Z,970.8
2016-10-10T10:56:00.483Z,970.73
2016-10-10T10:57:00.448Z,970.72
2016-10-10T10:58:00.413Z,970.74
2016-10-10T10:59:00.378Z,970.66
2016-10-10T11:00:00.342Z,970.72
2016-10-10T11:01:00.307Z,970.83
2016-10-10T11:02:00.272Z,970.72
2016-10-10T11:03:00.237Z,970.68
2016-10-10T11:04:00.203Z,970.7
2016-10-10T11:05:00.169Z,970.7
2016-10-10T11:06:00.135Z,970.76
2016-10-10T11:07:00.099Z,970.9
2016-10-10T11:08:00.065Z,970.61
2016-10-10T11:09:00.032Z,970.85
2016-10-10T11:09:59.996Z,970.68
2016-10-10T11:10:59.963Z,970.79
2016-10-10T11:11:59.929Z,970.78
2016-10-10T11:12:59.894Z,970.6
2016-10-10T11:13:59.862Z,970.82
2016-10-10T11:14:59.828Z,970.62
2016-10-10T11:15:59.794Z,970.63
2016-10-10T11:16:59.761Z,970.58
2016-10-10T11:17:59.729Z,970.81
2016-10-10T11:18:59.698Z,970.7
2016-10-10T11:19:59.662Z,970.72
2016-10-10T11:20:59.628Z,970.66
2016-10-10T11:21:59.595Z,970.52
2016-10-10T11:22:59.565Z,970.59
2016-10-10T11:23:59.530Z,970.43
2016-10-10T11:24:59.495Z,970.53
2016-10-10T11:25:59.463Z,970.4
2016-10-10T11:26:59.431Z,970.41
2016-10-10T11:27:59.398Z,970.38
2016-10-10T11:28:59.364Z,970.36
2016-10-10T11:29:59.332Z,970.29
2016-10-10T11:30:59.300Z,970.25
2016-10-10T11:31:59.265Z,970.2
2016-10-10T11:32:59.236Z,970.19
2016-10-10T11:33:59.201Z,970.2
2016-10-10T11:34:59.168Z,970.18
2016-10-10T11:35:59.135Z,970.15
2016-10-10T11:36:59.101Z,970.12
2016-10-10T11:37:59.069Z,970.06
2016-10-10T11:38:59.036Z,970.08
2016-10-10T11:39:59.003Z,970.02
2016-10-10T11:40:58.970Z,969.95
2016-10-10T11:41:58.937Z,969.95
2016-10-10T11:42:58.904Z,969.98
2016-10-10T11:43:58.873Z,969.93
2016-10-10T11:44:58.838Z,969.96
2016-10-10T11:45:58.804Z,969.96
2016-10-10T11:46:58.772Z,970.03
2016-10-10T11:47:58.738Z,969.98
2016-10-10T11:48:58.704Z,969.92
2016-10-10T11:49:58.671Z,969.94
2016-10-10T11:50:58.639Z,969.91
2016-10-10T11:51:58.604Z,969.88
2016-10-10T11:52:58.571Z,969.87
2016-10-10T11:53:58.537Z,969.88
2016-10-10T11:54:58.503Z,969.9
2016-10-10T11:55:58.469Z,969.83
2016-10-10T11:56:58.437Z,969.8
2016-10-10T11:57:58.400Z,969.74
2016-10-10T11:58:58.368Z,969.78
2016-10-10T11:59:58.333Z,969.75
2016-10-10T12:00:58.298Z,969.77
2016-10-10T12:01:58.264Z,969.82
2016-10-10T12:02:58.231Z,969.78
2016-10-10T12:03:58.198Z,969.73
2016-10-10T12:04:58.163Z,969.74
2016-10-10T12:05:58.128Z,969.72
2016-10-10T12:06:58.094Z,969.73
2016-10-10T12:07:58.058Z,969.71
2016-10-10T12:08:58.024Z,969.74
2016-10-10T12:09:57.990Z,969.72
2016-10-10T12:10:57.956Z,969.71
2016-10-10T12:11:57.918Z,969.64
2016-10-10T12:12:57.886Z,969.63
2016-10-10T12:13:57.853Z,969.6
2016-10-10T12:14:57.817Z,969.59
2016-10-10T12:15:57.781Z,969.56
2016-10-10T12:16:57.749Z,969.53
2016-10-10T12:17:57.714Z,969.54
2016-10-10T12:18:57.678Z,969.53
2016-10-10T12:19:57.645Z,969.52
2016-10-10T12:20:57.608Z,969.53
2016-10-10T12:21:57.576Z,969.61
2016-10-10T12:22:57.540Z,969.56
2016-10-10T12:23:57.505Z,969.5
2016-10-10T12:24:57.472Z,969.54
2016-10-10T12:25:57.437Z,969.5
2016-10-10T12:26:57.404Z,969.51
2016-10-10T12:27:57.368Z,969.52
2016-10-10T12:28:57.335Z,969.44
2016-10-10T12:29:57.300Z,969.4